createdAt,value
2022-10-27T00:01:02.610Z,21.20
2022-10-27T00:02:05.574Z,21.20
2022-10-27T00:03:15.033Z,21.30
2022-10-27T00:04:20.064Z,21.20
2022-10-27T00:05:22.544Z,21.20
2022-10-27T00:06:25.142Z,21.20
2022-10-27T00:07:27.972Z,21.20
2022-10-27T00:08:30.404Z,21.20
2022-10-27T00:09:32.965Z,21.20
2022-10-27T00:10:35.534Z,21.20
2022-10-27T00:11:38.082Z,21.20
2022-10-27T00:12:40.677Z,21.20
2022-10-27T00:13:44.781Z,21.20
2022-10-27T00:14:47.294Z,21.20
2022-10-27T00:16:00.682Z,21.20
2022-10-27T00:17:03.248Z,21.20
2022-10-27T00:18:12.160Z,21.20
2022-10-27T00:19:14.769Z,21.20
2022-10-27T00:20:17.445Z,21.20
2022-10-27T00:21:21.270Z,21.20
2022-10-27T00:22:24.032Z,21.20
2022-10-27T00:23:26.810Z,21.20
2022-10-27T00:24:29.279Z,21.20
2022-10-27T00:25:31.944Z,21.10
2022-10-27T00:26:34.505Z,21.20
2022-10-27T00:27:37.011Z,21.10
2022-10-27T00:28:40.106Z,21.20
2022-10-27T00:29:42.990Z,21.20
2022-10-27T00:30:46.161Z,21.20
2022-10-27T00:31:48.768Z,21.20
2022-10-27T00:32:51.462Z,21.20
2022-10-27T00:33:54.167Z,21.20
2022-10-27T00:34:56.938Z,21.20
2022-10-27T00:36:14.555Z,21.20
2022-10-27T00:37:18.189Z,21.20
2022-10-27T00:38:22.819Z,21.10
2022-10-27T00:39:25.512Z,21.20
2022-10-27T00:40:28.049Z,21.20
2022-10-27T00:41:39.081Z,21.20
2022-10-27T00:42:41.860Z,21.20
2022-10-27T00:43:44.337Z,21.20
2022-10-27T00:44:47.646Z,21.20
2022-10-27T00:45:50.557Z,21.20
2022-10-27T00:46:53.041Z,21.20
2022-10-27T00:47:55.638Z,21.20
2022-10-27T00:49:03.497Z,21.20
2022-10-27T00:50:10.913Z,21.20
2022-10-27T00:51:17.323Z,21.20
2022-10-27T00:52:29.901Z,21.20
2022-10-27T00:53:34.255Z,21.20
2022-10-27T00:54:40.303Z,21.10
2022-10-27T00:55:43.543Z,21.20
2022-10-27T00:56:49.323Z,21.20
2022-10-27T00:57:55.783Z,21.20
2022-10-27T00:58:58.383Z,21.20
2022-10-27T01:00:04.454Z,21.20
2022-10-27T01:01:07.320Z,21.20
2022-10-27T01:02:11.866Z,21.20
2022-10-27T01:03:18.955Z,21.20
2022-10-27T01:04:56.957Z,21.20
2022-10-27T01:06:00.290Z,21.20
2022-10-27T01:07:03.097Z,21.20
2022-10-27T01:08:06.339Z,21.20
2022-10-27T01:09:09.445Z,21.20
2022-10-27T01:10:14.731Z,21.20
2022-10-27T01:11:17.207Z,21.20
2022-10-27T01:12:19.781Z,21.20
2022-10-27T01:13:23.547Z,21.20
2022-10-27T01:14:27.119Z,21.20
2022-10-27T01:15:50.787Z,21.20
2022-10-27T01:17:34.611Z,21.20
2022-10-27T01:19:18.887Z,21.20
2022-10-27T01:20:42.871Z,21.20
2022-10-27T01:22:21.734Z,21.20
2022-10-27T01:23:43.742Z,21.20
2022-10-27T01:25:01.212Z,21.20
2022-10-27T01:26:36.190Z,21.20
2022-10-27T01:27:57.418Z,21.20
2022-10-27T01:29:11.518Z,21.20
2022-10-27T01:30:20.669Z,21.20
2022-10-27T01:31:31.591Z,21.20
2022-10-27T01:33:16.877Z,21.20
2022-10-27T01:34:34.262Z,21.20
2022-10-27T01:35:55.704Z,21.20
2022-10-27T01:37:20.420Z,21.20
2022-10-27T01:38:40.263Z,21.10
2022-10-27T01:39:51.922Z,21.20
2022-10-27T01:40:58.109Z,21.20
2022-10-27T01:42:14.689Z,21.20
2022-10-27T01:43:25.672Z,21.20
2022-10-27T01:44:35.406Z,21.20
2022-10-27T01:45:39.276Z,21.20
2022-10-27T01:46:43.589Z,21.20
2022-10-27T01:47:47.204Z,21.20
2022-10-27T01:48:49.898Z,21.20
2022-10-27T01:49:56.482Z,21.20
2022-10-27T01:51:02.250Z,21.20
2022-10-27T01:52:46.169Z,21.20
2022-10-27T01:53:51.761Z,21.20
2022-10-27T01:54:57.167Z,21.20
2022-10-27T01:56:02.744Z,21.20
2022-10-27T01:57:32.224Z,21.20
2022-10-27T01:58:52.315Z,21.20
2022-10-27T02:00:04.532Z,21.20
2022-10-27T02:01:19.797Z,21.20
2022-10-27T02:02:34.511Z,21.20
2022-10-27T02:04:00.495Z,21.20
2022-10-27T02:05:32.201Z,21.20
2022-10-27T02:06:45.347Z,21.20
2022-10-27T02:08:19.940Z,21.20
2022-10-27T02:09:47.555Z,21.20
2022-10-27T02:11:00.506Z,21.20
2022-10-27T02:12:15.620Z,21.20
2022-10-27T02:13:18.532Z,21.20
2022-10-27T02:14:21.652Z,21.20
2022-10-27T02:15:28.811Z,21.20
2022-10-27T02:16:34.987Z,21.20
2022-10-27T02:17:40.112Z,21.10
2022-10-27T02:18:57.908Z,21.20
2022-10-27T02:20:03.623Z,21.20
2022-10-27T02:21:09.682Z,21.20
2022-10-27T02:22:13.511Z,21.20
2022-10-27T02:23:21.244Z,21.20
2022-10-27T02:24:24.764Z,21.10
2022-10-27T02:25:34.971Z,21.20
2022-10-27T02:26:52.609Z,21.30
2022-10-27T02:28:01.600Z,21.20
2022-10-27T02:29:13.078Z,21.20
2022-10-27T02:30:17.349Z,21.10
2022-10-27T02:31:23.669Z,21.20
2022-10-27T02:32:27.196Z,21.20
2022-10-27T02:33:29.629Z,21.20
2022-10-27T02:34:33.741Z,21.20
2022-10-27T02:35:36.815Z,21.10
2022-10-27T02:36:40.557Z,21.20
2022-10-27T02:37:45.352Z,21.10
2022-10-27T02:38:47.871Z,21.10
2022-10-27T02:39:50.356Z,21.20
2022-10-27T02:40:52.966Z,21.20
2022-10-27T02:41:55.839Z,21.20
2022-10-27T02:42:58.655Z,21.20
2022-10-27T02:44:03.574Z,21.10
2022-10-27T02:45:06.624Z,21.10
2022-10-27T02:46:09.414Z,21.20
2022-10-27T02:47:11.980Z,21.20
2022-10-27T02:48:14.671Z,21.20
2022-10-27T02:49:17.197Z,21.20
2022-10-27T02:50:19.674Z,21.20
2022-10-27T02:51:22.199Z,21.20
2022-10-27T02:52:24.714Z,21.20
2022-10-27T02:53:27.672Z,21.10
2022-10-27T02:54:32.061Z,21.20
2022-10-27T02:55:34.631Z,21.20
2022-10-27T02:56:38.326Z,21.20
2022-10-27T02:57:40.920Z,21.20
2022-10-27T02:58:43.375Z,21.20
2022-10-27T02:59:52.674Z,21.10
2022-10-27T03:00:57.188Z,21.20
2022-10-27T03:02:02.055Z,21.20
2022-10-27T03:03:05.184Z,21.20
2022-10-27T03:04:08.310Z,21.20
2022-10-27T03:05:10.845Z,21.20
2022-10-27T03:06:13.695Z,21.20
2022-10-27T03:07:16.310Z,21.20
2022-10-27T03:08:20.179Z,21.10
2022-10-27T03:09:22.859Z,21.20
2022-10-27T03:10:25.448Z,21.20
2022-10-27T03:11:27.974Z,21.20
2022-10-27T03:12:30.570Z,21.20
2022-10-27T03:13:33.368Z,21.20
2022-10-27T03:14:35.843Z,21.20
2022-10-27T03:15:38.577Z,21.10
2022-10-27T03:16:41.060Z,21.10
2022-10-27T03:17:48.384Z,21.20
2022-10-27T03:18:50.855Z,21.10
2022-10-27T03:19:53.751Z,21.10
2022-10-27T03:20:56.247Z,21.20
2022-10-27T03:21:58.859Z,21.20
2022-10-27T03:23:01.646Z,21.10
2022-10-27T03:24:04.480Z,21.20
2022-10-27T03:25:08.127Z,21.10
2022-10-27T03:26:11.090Z,21.20
2022-10-27T03:27:13.619Z,21.10
2022-10-27T03:28:16.222Z,21.10
2022-10-27T03:29:18.851Z,21.20
2022-10-27T03:30:21.390Z,21.10
2022-10-27T03:31:24.094Z,21.20
2022-10-27T03:32:26.622Z,21.20
2022-10-27T03:33:30.578Z,21.10
2022-10-27T03:34:33.990Z,21.10
2022-10-27T03:35:37.592Z,21.10
2022-10-27T03:36:41.249Z,21.20
2022-10-27T03:37:44.155Z,21.20
2022-10-27T03:38:47.546Z,21.10
2022-10-27T03:39:51.131Z,21.20
2022-10-27T03:40:54.006Z,21.20
2022-10-27T03:41:56.451Z,21.10
2022-10-27T03:43:01.724Z,21.10
2022-10-27T03:44:04.398Z,21.10
2022-10-27T03:45:07.214Z,21.10
2022-10-27T03:46:11.019Z,21.20
2022-10-27T03:47:14.633Z,21.10
2022-10-27T03:48:17.584Z,21.10
2022-10-27T03:49:20.086Z,21.20
2022-10-27T03:50:22.813Z,21.20
2022-10-27T03:51:25.314Z,21.20
2022-10-27T03:52:30.985Z,21.20
2022-10-27T03:53:35.735Z,21.20
2022-10-27T03:54:38.269Z,21.10
2022-10-27T03:55:40.797Z,21.20
2022-10-27T03:56:43.401Z,21.20
2022-10-27T03:57:45.871Z,21.10
2022-10-27T03:58:48.441Z,21.20
2022-10-27T03:59:50.962Z,21.20
2022-10-27T04:00:53.529Z,21.20
2022-10-27T04:01:56.181Z,21.20
2022-10-27T04:02:59.789Z,21.20
2022-10-27T04:04:04.605Z,21.10
2022-10-27T04:05:07.491Z,21.20
2022-10-27T04:06:09.969Z,21.20
2022-10-27T04:07:12.411Z,21.20
2022-10-27T04:08:14.890Z,21.10
2022-10-27T04:09:17.367Z,21.10
2022-10-27T04:10:19.887Z,21.20
2022-10-27T04:11:23.774Z,21.20
2022-10-27T04:12:26.589Z,21.10
2022-10-27T04:13:30.789Z,21.10
2022-10-27T04:14:33.690Z,21.20
2022-10-27T04:15:36.162Z,21.10
2022-10-27T04:16:38.914Z,21.10
2022-10-27T04:17:41.380Z,21.20
2022-10-27T04:18:46.823Z,21.20
2022-10-27T04:19:49.739Z,21.20
2022-10-27T04:20:52.704Z,21.20
2022-10-27T04:21:55.695Z,21.20
2022-10-27T04:22:59.447Z,21.20
2022-10-27T04:24:01.997Z,21.10
2022-10-27T04:25:04.976Z,21.20
2022-10-27T04:26:07.797Z,21.10
2022-10-27T04:28:15.360Z,21.10
2022-10-27T04:29:17.881Z,21.20
2022-10-27T04:30:20.424Z,21.10
2022-10-27T04:31:23.596Z,21.10
2022-10-27T04:32:26.074Z,21.10
2022-10-27T04:33:29.306Z,21.20
2022-10-27T04:34:31.901Z,21.20
2022-10-27T04:36:36.904Z,21.20
2022-10-27T04:37:39.470Z,21.10
2022-10-27T04:38:41.944Z,21.10
2022-10-27T04:39:44.476Z,21.10
2022-10-27T04:40:47.291Z,21.20
2022-10-27T04:41:50.514Z,21.10
2022-10-27T04:42:53.216Z,21.20
2022-10-27T04:43:55.707Z,21.10
2022-10-27T04:45:00.249Z,21.20
2022-10-27T04:46:03.083Z,21.10
2022-10-27T04:47:05.866Z,21.10
2022-10-27T04:48:08.460Z,21.20
2022-10-27T04:49:10.963Z,21.20
2022-10-27T04:50:14.934Z,21.20
2022-10-27T04:51:20.652Z,21.10
2022-10-27T04:52:25.447Z,21.20
2022-10-27T04:53:27.953Z,21.20
2022-10-27T04:54:30.475Z,21.20
2022-10-27T04:55:34.672Z,21.10
2022-10-27T04:56:38.625Z,21.20
2022-10-27T04:57:42.193Z,21.20
2022-10-27T04:58:44.792Z,21.10
2022-10-27T04:59:47.403Z,21.20
2022-10-27T05:00:49.845Z,21.20
2022-10-27T05:01:53.573Z,21.20
2022-10-27T05:02:58.040Z,21.10
2022-10-27T05:04:00.586Z,21.20
2022-10-27T05:05:04.348Z,21.20
2022-10-27T05:06:07.074Z,21.10
2022-10-27T05:07:09.677Z,21.10
2022-10-27T05:08:12.730Z,21.10
2022-10-27T05:09:15.915Z,21.10
2022-10-27T05:10:18.479Z,21.20
2022-10-27T05:11:21.011Z,21.20
2022-10-27T05:12:23.513Z,21.20
2022-10-27T05:13:26.331Z,21.10
2022-10-27T05:14:30.939Z,21.10
2022-10-27T05:15:33.484Z,21.20
2022-10-27T05:16:36.312Z,21.20
2022-10-27T05:17:39.244Z,21.10
2022-10-27T05:18:42.102Z,21.10
2022-10-27T05:19:44.582Z,21.20
2022-10-27T05:20:48.098Z,21.20
2022-10-27T05:21:50.764Z,21.10
2022-10-27T05:22:53.274Z,21.10
2022-10-27T05:23:55.793Z,21.20
2022-10-27T05:24:58.327Z,21.20
2022-10-27T05:26:00.933Z,21.20
2022-10-27T05:27:04.112Z,21.10
2022-10-27T05:28:08.855Z,21.20
2022-10-27T05:29:12.291Z,21.10
2022-10-27T05:30:15.952Z,21.20
2022-10-27T05:31:19.955Z,21.20
2022-10-27T05:32:22.484Z,21.20
2022-10-27T05:33:26.571Z,21.10
2022-10-27T05:34:29.008Z,21.20
2022-10-27T05:35:35.949Z,21.10
2022-10-27T05:36:41.619Z,21.20
2022-10-27T05:37:46.860Z,21.20
2022-10-27T05:38:49.351Z,21.20
2022-10-27T05:39:51.752Z,21.20
2022-10-27T05:40:59.303Z,21.20
2022-10-27T05:42:01.719Z,21.10
2022-10-27T05:43:05.610Z,21.10
2022-10-27T05:44:08.266Z,21.10
2022-10-27T05:45:11.003Z,21.10
2022-10-27T05:46:13.525Z,21.20
2022-10-27T05:47:16.080Z,21.10
2022-10-27T05:48:18.917Z,21.20
2022-10-27T05:49:21.341Z,21.30
2022-10-27T05:50:23.886Z,21.20
2022-10-27T05:51:28.797Z,21.20
2022-10-27T05:52:32.537Z,21.10
2022-10-27T05:53:35.022Z,21.10
2022-10-27T05:54:39.606Z,21.20
2022-10-27T05:55:42.370Z,21.20
2022-10-27T05:56:45.208Z,21.20
2022-10-27T05:57:59.271Z,21.20
2022-10-27T05:59:01.745Z,21.10
2022-10-27T06:00:07.875Z,21.10
2022-10-27T06:01:10.519Z,21.20
2022-10-27T06:02:13.219Z,21.20
2022-10-27T06:03:24.648Z,21.20
2022-10-27T06:04:27.197Z,21.20
2022-10-27T06:05:31.433Z,21.20
2022-10-27T06:06:33.931Z,21.20
2022-10-27T06:07:36.320Z,21.20
2022-10-27T06:08:38.818Z,21.20
2022-10-27T06:09:41.242Z,21.20
2022-10-27T06:10:44.582Z,21.20
2022-10-27T06:11:47.073Z,21.20
2022-10-27T06:12:51.900Z,21.20
2022-10-27T06:13:55.740Z,21.20
2022-10-27T06:15:15.670Z,21.20
2022-10-27T06:16:20.631Z,21.20
2022-10-27T06:17:23.138Z,21.20
2022-10-27T06:18:25.567Z,21.30
2022-10-27T06:19:28.097Z,21.20
2022-10-27T06:20:30.703Z,21.30
2022-10-27T06:21:33.186Z,21.20
2022-10-27T06:22:35.751Z,21.20
2022-10-27T06:23:40.287Z,21.20
2022-10-27T06:24:42.730Z,21.30
2022-10-27T06:25:45.234Z,21.20
2022-10-27T06:26:47.694Z,21.20
2022-10-27T06:27:50.582Z,21.30
2022-10-27T06:28:53.319Z,21.30
2022-10-27T06:29:55.746Z,21.30
2022-10-27T06:30:58.179Z,21.30
2022-10-27T06:32:00.668Z,21.30
2022-10-27T06:33:03.206Z,21.30
2022-10-27T06:34:05.621Z,21.30
2022-10-27T06:35:09.764Z,21.30
2022-10-27T06:36:12.252Z,21.30
2022-10-27T06:37:14.729Z,21.30
2022-10-27T06:38:17.228Z,21.30
2022-10-27T06:39:19.649Z,21.30
2022-10-27T06:40:22.080Z,21.30
2022-10-27T06:41:24.497Z,21.30
2022-10-27T06:42:28.124Z,21.30
2022-10-27T06:43:32.207Z,21.30
2022-10-27T06:44:34.683Z,21.30
2022-10-27T06:45:37.554Z,21.30
2022-10-27T06:46:40.029Z,21.30
2022-10-27T06:47:42.510Z,21.30
2022-10-27T06:48:45.028Z,21.30
2022-10-27T06:49:47.415Z,21.30
2022-10-27T06:50:49.899Z,21.30
2022-10-27T06:51:52.322Z,21.30
2022-10-27T06:52:54.891Z,21.30
2022-10-27T06:53:57.420Z,21.40
2022-10-27T06:54:59.891Z,21.40
2022-10-27T06:56:05.078Z,21.40
2022-10-27T06:57:07.962Z,21.40
2022-10-27T06:58:10.555Z,21.40
2022-10-27T06:59:13.041Z,21.40
2022-10-27T07:00:16.570Z,21.40
2022-10-27T07:01:19.112Z,21.40
2022-10-27T07:02:25.245Z,21.40
2022-10-27T07:03:27.940Z,21.40
2022-10-27T07:04:30.579Z,21.40
2022-10-27T07:05:33.004Z,21.40
2022-10-27T07:06:35.454Z,21.40
2022-10-27T07:07:38.462Z,21.40
2022-10-27T07:08:40.923Z,21.40
2022-10-27T07:09:43.405Z,21.50
2022-10-27T07:10:45.757Z,21.40
2022-10-27T07:11:48.189Z,21.40
2022-10-27T07:12:58.457Z,21.40
2022-10-27T07:14:00.924Z,21.40
2022-10-27T07:15:03.557Z,21.40
2022-10-27T07:16:06.542Z,21.40
2022-10-27T07:17:09.046Z,21.40
2022-10-27T07:18:12.103Z,21.40
2022-10-27T07:19:14.709Z,21.40
2022-10-27T07:20:17.103Z,21.40
2022-10-27T07:21:19.484Z,21.40
2022-10-27T07:22:21.930Z,21.40
2022-10-27T07:23:25.187Z,21.40
2022-10-27T07:24:27.586Z,21.40
2022-10-27T07:25:31.507Z,21.40
2022-10-27T07:26:34.023Z,21.40
2022-10-27T07:27:36.482Z,21.40
2022-10-27T07:28:38.978Z,21.40
2022-10-27T07:29:41.586Z,21.40
2022-10-27T07:30:44.817Z,21.40
2022-10-27T07:31:47.933Z,21.40
2022-10-27T07:32:50.462Z,21.40
2022-10-27T07:33:53.023Z,21.40
2022-10-27T07:34:55.541Z,21.40
2022-10-27T07:35:57.928Z,21.50
2022-10-27T07:37:00.640Z,21.40
2022-10-27T07:38:04.561Z,21.40
2022-10-27T07:39:09.678Z,21.40
2022-10-27T07:40:14.296Z,21.50
2022-10-27T07:41:16.749Z,21.50
2022-10-27T07:42:19.221Z,21.40
2022-10-27T07:43:21.756Z,21.40
2022-10-27T07:44:24.273Z,21.50
2022-10-27T07:45:28.279Z,21.50
2022-10-27T07:46:30.841Z,21.50
2022-10-27T07:47:33.321Z,21.50
2022-10-27T07:48:35.808Z,21.50
2022-10-27T07:49:38.278Z,21.50
2022-10-27T07:50:41.996Z,21.50
2022-10-27T07:51:44.478Z,21.50
2022-10-27T07:52:49.679Z,21.50
2022-10-27T07:53:57.184Z,21.50
2022-10-27T07:55:00.675Z,21.50
2022-10-27T07:56:03.408Z,21.50
2022-10-27T07:57:05.803Z,21.50
2022-10-27T07:58:13.026Z,21.50
2022-10-27T07:59:15.597Z,21.50
2022-10-27T08:00:18.433Z,21.50
2022-10-27T08:01:20.957Z,21.50
2022-10-27T08:02:23.583Z,21.50
2022-10-27T08:03:29.815Z,21.50
2022-10-27T08:04:32.365Z,21.50
2022-10-27T08:05:36.767Z,21.50
2022-10-27T08:06:39.237Z,21.60
2022-10-27T08:07:41.674Z,21.60
2022-10-27T08:08:44.455Z,21.60
2022-10-27T08:09:49.809Z,21.60
2022-10-27T08:10:52.253Z,21.50
2022-10-27T08:11:54.744Z,21.60
2022-10-27T08:12:57.511Z,21.60
2022-10-27T08:13:59.903Z,21.60
2022-10-27T08:15:03.043Z,21.60
2022-10-27T08:16:06.259Z,21.60
2022-10-27T08:17:09.526Z,21.60
2022-10-27T08:18:12.289Z,21.60
2022-10-27T08:19:16.012Z,21.60
2022-10-27T08:20:18.534Z,21.60
2022-10-27T08:21:20.873Z,21.60
2022-10-27T08:22:23.391Z,21.60
2022-10-27T08:23:25.963Z,21.60
2022-10-27T08:24:28.527Z,21.60
2022-10-27T08:25:31.628Z,21.60
2022-10-27T08:26:34.086Z,21.60
2022-10-27T08:27:36.499Z,21.60
2022-10-27T08:28:38.878Z,21.60
2022-10-27T08:29:43.630Z,21.60
2022-10-27T08:30:52.143Z,21.60
2022-10-27T08:31:57.841Z,21.60
2022-10-27T08:33:04.469Z,21.60
2022-10-27T08:34:07.101Z,21.70
2022-10-27T08:35:10.173Z,21.70
2022-10-27T08:36:12.626Z,21.70
2022-10-27T08:37:15.111Z,21.70
2022-10-27T08:38:18.691Z,21.70
2022-10-27T08:39:21.180Z,21.70
2022-10-27T08:40:23.820Z,21.70
2022-10-27T08:41:47.026Z,21.70
2022-10-27T08:42:54.536Z,21.60
2022-10-27T08:44:11.334Z,21.70
2022-10-27T08:45:20.274Z,21.70
2022-10-27T08:46:36.515Z,21.70
2022-10-27T08:47:39.335Z,21.70
2022-10-27T08:48:44.181Z,21.70
2022-10-27T08:50:06.553Z,21.70
2022-10-27T08:51:15.808Z,21.70
2022-10-27T08:52:33.677Z,21.70
2022-10-27T08:53:39.035Z,21.70
2022-10-27T08:54:46.988Z,21.70
2022-10-27T08:55:53.567Z,21.70
2022-10-27T08:57:02.031Z,21.70
2022-10-27T08:58:20.865Z,21.80
2022-10-27T08:59:28.069Z,21.70
2022-10-27T09:00:38.383Z,21.70
2022-10-27T09:02:09.688Z,21.80
2022-10-27T09:03:44.899Z,21.70
2022-10-27T09:05:16.484Z,21.80
2022-10-27T09:06:39.619Z,21.70
2022-10-27T09:08:07.571Z,21.80
2022-10-27T09:09:27.346Z,21.80
2022-10-27T09:10:49.968Z,21.70
2022-10-27T09:12:16.575Z,21.70
2022-10-27T09:13:39.935Z,21.80
2022-10-27T09:14:47.036Z,21.70
2022-10-27T09:15:55.781Z,21.80
2022-10-27T09:17:03.519Z,21.80
2022-10-27T09:18:44.207Z,21.80
2022-10-27T09:20:01.353Z,21.80
2022-10-27T09:21:12.436Z,21.80
2022-10-27T09:22:19.748Z,21.80
2022-10-27T09:23:28.142Z,21.80
2022-10-27T09:24:35.032Z,21.80
2022-10-27T09:25:40.505Z,21.80
2022-10-27T09:26:44.843Z,21.80
2022-10-27T09:27:52.948Z,21.80
2022-10-27T09:28:57.527Z,21.70
2022-10-27T09:30:07.094Z,21.80
2022-10-27T09:31:27.339Z,21.70
2022-10-27T09:32:33.104Z,21.80
2022-10-27T09:33:36.875Z,21.80
2022-10-27T09:34:48.703Z,21.80
2022-10-27T09:35:52.054Z,21.80
2022-10-27T09:36:56.376Z,21.80
2022-10-27T09:37:59.852Z,21.80
2022-10-27T09:39:02.495Z,21.80
2022-10-27T09:40:11.188Z,21.80
2022-10-27T09:41:13.810Z,21.80
2022-10-27T09:42:17.374Z,21.80
2022-10-27T09:43:23.378Z,21.80
2022-10-27T09:44:26.784Z,21.70
2022-10-27T09:45:29.842Z,21.80
2022-10-27T09:46:32.729Z,21.80
2022-10-27T09:47:41.511Z,21.80
2022-10-27T09:48:44.291Z,21.70
2022-10-27T09:49:48.433Z,21.70
2022-10-27T09:50:58.561Z,21.80
2022-10-27T09:52:06.489Z,21.80
2022-10-27T09:53:46.366Z,21.90
2022-10-27T09:54:57.426Z,21.80
2022-10-27T09:56:00.200Z,21.70
2022-10-27T09:57:08.879Z,21.80
2022-10-27T09:58:11.483Z,21.80
2022-10-27T09:59:22.443Z,21.80
2022-10-27T10:00:27.822Z,21.80
2022-10-27T10:01:39.158Z,21.80
2022-10-27T10:02:55.513Z,21.80
2022-10-27T10:04:10.288Z,21.80
2022-10-27T10:05:20.442Z,21.70
2022-10-27T10:06:35.304Z,21.80
2022-10-27T10:07:40.380Z,21.70
2022-10-27T10:08:42.949Z,21.70
2022-10-27T10:09:46.871Z,21.70
2022-10-27T10:11:01.349Z,21.70
2022-10-27T10:12:22.144Z,21.70
2022-10-27T10:13:28.997Z,21.70
2022-10-27T10:14:31.563Z,21.70
2022-10-27T10:15:38.580Z,21.70
2022-10-27T10:16:45.080Z,21.70
2022-10-27T10:17:55.426Z,21.70
2022-10-27T10:19:33.239Z,21.70
2022-10-27T10:20:39.394Z,21.70
2022-10-27T10:21:48.899Z,21.70
2022-10-27T10:22:52.073Z,21.70
2022-10-27T10:23:59.059Z,21.80
2022-10-27T10:25:20.631Z,21.70
2022-10-27T10:26:28.400Z,21.60
2022-10-27T10:27:35.853Z,21.70
2022-10-27T10:28:42.790Z,21.70
2022-10-27T10:29:50.635Z,21.70
2022-10-27T10:30:55.654Z,21.70
2022-10-27T10:32:21.689Z,21.70
2022-10-27T10:33:28.438Z,21.70
2022-10-27T10:34:33.062Z,21.60
2022-10-27T10:35:50.955Z,21.70
2022-10-27T10:36:53.656Z,21.70
2022-10-27T10:37:56.137Z,21.60
2022-10-27T10:39:00.790Z,21.70
2022-10-27T10:40:26.645Z,21.70
2022-10-27T10:41:30.304Z,21.70
2022-10-27T10:42:33.918Z,21.70
2022-10-27T10:43:36.358Z,21.60
2022-10-27T10:44:39.046Z,21.60
2022-10-27T10:45:42.506Z,21.70
2022-10-27T10:46:54.483Z,21.60
2022-10-27T10:48:08.327Z,21.60
2022-10-27T10:49:29.020Z,21.70
2022-10-27T10:50:33.511Z,21.60
2022-10-27T10:51:36.860Z,21.60
2022-10-27T10:52:44.890Z,21.70
2022-10-27T10:53:53.962Z,21.60
2022-10-27T10:54:56.454Z,21.60
2022-10-27T10:56:03.939Z,21.70
2022-10-27T10:57:25.148Z,21.60
2022-10-27T10:58:32.875Z,21.60
2022-10-27T10:59:36.055Z,21.60
2022-10-27T11:00:51.200Z,21.60
2022-10-27T11:02:30.085Z,21.70
2022-10-27T11:03:40.082Z,21.60
2022-10-27T11:04:47.355Z,21.70
2022-10-27T11:05:59.409Z,21.60
2022-10-27T11:07:18.094Z,21.60
2022-10-27T11:08:27.869Z,21.60
2022-10-27T11:09:57.822Z,21.60
2022-10-27T11:11:02.695Z,21.60
2022-10-27T11:12:40.173Z,21.60
2022-10-27T11:14:07.750Z,21.60
2022-10-27T11:15:24.235Z,21.60
2022-10-27T11:16:28.119Z,21.60
2022-10-27T11:17:39.119Z,21.60
2022-10-27T11:18:53.398Z,21.60
2022-10-27T11:19:57.316Z,21.70
2022-10-27T11:21:17.403Z,21.60
2022-10-27T11:22:22.064Z,21.60
2022-10-27T11:23:29.955Z,21.60
2022-10-27T11:24:47.728Z,21.60
2022-10-27T11:25:50.646Z,21.60
2022-10-27T11:26:58.538Z,21.70
2022-10-27T11:28:30.623Z,21.60
2022-10-27T11:30:09.550Z,21.60
2022-10-27T11:31:23.193Z,21.60
2022-10-27T11:32:47.295Z,21.70
2022-10-27T11:33:55.677Z,21.60
2022-10-27T11:35:10.694Z,21.60
2022-10-27T11:36:49.087Z,21.60
2022-10-27T11:41:44.725Z,21.70
2022-10-27T11:42:56.888Z,21.60
2022-10-27T11:44:23.602Z,21.60
2022-10-27T11:45:42.778Z,21.70
2022-10-27T11:47:01.299Z,21.70
2022-10-27T11:48:21.595Z,21.60
2022-10-27T11:49:39.158Z,21.60
2022-10-27T11:50:53.369Z,21.70
2022-10-27T11:52:03.317Z,21.60
2022-10-27T11:53:10.849Z,21.60
2022-10-27T11:54:16.692Z,21.60
2022-10-27T11:55:23.558Z,21.60
2022-10-27T11:56:45.825Z,21.60
2022-10-27T11:57:54.357Z,21.60
2022-10-27T11:59:14.591Z,21.70
2022-10-27T12:00:24.419Z,21.60
2022-10-27T12:02:08.905Z,21.60
2022-10-27T12:03:23.375Z,21.60
2022-10-27T12:04:37.774Z,21.60
2022-10-27T12:06:06.167Z,21.60
2022-10-27T12:07:20.218Z,21.60
2022-10-27T12:09:01.274Z,21.70
2022-10-27T12:10:27.005Z,21.60
2022-10-27T12:11:44.039Z,21.70
2022-10-27T12:12:54.863Z,21.60
2022-10-27T12:14:41.935Z,21.60
2022-10-27T12:16:08.077Z,21.70
2022-10-27T12:17:42.336Z,21.60
2022-10-27T12:18:57.100Z,21.60
2022-10-27T12:20:01.891Z,21.60
2022-10-27T12:21:18.304Z,21.70
2022-10-27T12:22:31.256Z,21.60
2022-10-27T12:23:42.430Z,21.60
2022-10-27T12:25:00.249Z,21.60
2022-10-27T12:26:20.171Z,21.60
2022-10-27T12:27:40.021Z,21.60
2022-10-27T12:28:43.209Z,21.60
2022-10-27T12:29:51.015Z,21.60
2022-10-27T12:30:56.385Z,21.70
2022-10-27T12:32:08.632Z,21.60
2022-10-27T12:33:31.946Z,21.60
2022-10-27T12:34:40.767Z,21.60
2022-10-27T12:36:01.989Z,21.60
2022-10-27T12:37:26.035Z,21.70
2022-10-27T12:38:57.452Z,21.60
2022-10-27T12:40:13.563Z,21.70
2022-10-27T12:41:26.515Z,21.60
2022-10-27T12:42:45.291Z,21.60
2022-10-27T12:44:05.433Z,21.60
2022-10-27T12:45:41.764Z,21.60
2022-10-27T12:46:52.925Z,21.60
2022-10-27T12:48:03.716Z,21.60
2022-10-27T12:49:22.866Z,21.60
2022-10-27T12:50:31.396Z,21.70
2022-10-27T12:52:05.978Z,21.60
2022-10-27T12:53:47.735Z,21.60
2022-10-27T12:55:24.382Z,21.60
2022-10-27T12:56:35.186Z,21.60
2022-10-27T12:57:50.513Z,21.60
2022-10-27T12:59:15.717Z,21.60
2022-10-27T13:00:19.655Z,21.60
2022-10-27T13:01:42.241Z,21.60
2022-10-27T13:03:11.882Z,21.60
2022-10-27T13:04:43.399Z,21.60
2022-10-27T13:06:05.409Z,21.60
2022-10-27T13:07:38.288Z,21.60
2022-10-27T13:09:04.410Z,21.60
2022-10-27T13:10:40.319Z,21.60
2022-10-27T13:11:56.762Z,21.60
2022-10-27T13:13:26.118Z,21.60
2022-10-27T13:14:55.025Z,21.70
2022-10-27T13:16:34.465Z,21.60
2022-10-27T13:17:50.041Z,21.60
2022-10-27T13:19:01.787Z,21.60
2022-10-27T13:20:23.773Z,21.70
2022-10-27T13:21:33.490Z,21.60
2022-10-27T13:22:59.557Z,21.60
2022-10-27T13:24:33.275Z,21.60
2022-10-27T13:25:43.406Z,21.60
2022-10-27T13:26:57.407Z,21.70
2022-10-27T13:28:18.519Z,21.70
2022-10-27T13:29:26.677Z,21.70
2022-10-27T13:30:32.426Z,21.70
2022-10-27T13:31:37.050Z,21.60
2022-10-27T13:32:48.395Z,21.70
2022-10-27T13:34:18.768Z,21.70
2022-10-27T13:35:35.026Z,21.60
2022-10-27T13:36:38.451Z,21.60
2022-10-27T13:37:48.375Z,21.70
2022-10-27T13:39:13.647Z,21.60
2022-10-27T13:40:21.224Z,21.60
2022-10-27T13:41:51.675Z,21.60
2022-10-27T13:43:17.706Z,21.60
2022-10-27T13:44:30.101Z,21.60
2022-10-27T13:45:35.395Z,21.60
2022-10-27T13:47:03.723Z,21.60
2022-10-27T13:48:08.852Z,21.70
2022-10-27T13:49:40.170Z,21.70
2022-10-27T13:50:57.093Z,21.70
2022-10-27T13:52:14.802Z,21.70
2022-10-27T13:53:20.130Z,21.70
2022-10-27T13:55:13.392Z,21.70
2022-10-27T13:56:15.833Z,21.70
2022-10-27T13:57:55.889Z,21.70
2022-10-27T13:59:21.846Z,21.70
2022-10-27T14:00:33.190Z,21.70
2022-10-27T14:02:03.236Z,21.70
2022-10-27T14:03:15.057Z,21.70
2022-10-27T14:04:47.155Z,21.70
2022-10-27T14:05:50.062Z,21.70
2022-10-27T14:07:04.204Z,21.80
2022-10-27T14:08:22.149Z,21.70
2022-10-27T14:09:45.596Z,21.70
2022-10-27T14:10:48.905Z,21.70
2022-10-27T14:11:54.424Z,21.70
2022-10-27T14:12:58.050Z,21.70
2022-10-27T14:14:07.737Z,21.70
2022-10-27T14:15:27.797Z,21.70
2022-10-27T14:16:35.939Z,21.70
2022-10-27T14:17:43.104Z,21.70
2022-10-27T14:18:45.702Z,21.70
2022-10-27T14:20:08.671Z,21.70
2022-10-27T14:21:23.122Z,21.70
2022-10-27T14:22:41.327Z,21.70
2022-10-27T14:23:44.416Z,21.70
2022-10-27T14:24:52.840Z,21.60
2022-10-27T14:25:55.498Z,21.70
2022-10-27T14:27:03.167Z,21.70
2022-10-27T14:28:18.187Z,21.70
2022-10-27T14:29:23.817Z,21.70
2022-10-27T14:30:26.554Z,21.60
2022-10-27T14:31:30.454Z,21.60
2022-10-27T14:32:33.121Z,21.70
2022-10-27T14:33:35.637Z,21.70
2022-10-27T14:34:38.271Z,21.70
2022-10-27T14:35:40.903Z,21.70
2022-10-27T14:36:43.554Z,21.70
2022-10-27T14:37:46.474Z,21.70
2022-10-27T14:38:54.891Z,21.70
2022-10-27T14:40:02.105Z,21.70
2022-10-27T14:41:24.213Z,21.70
2022-10-27T14:42:32.656Z,21.70
2022-10-27T14:43:35.428Z,21.70
2022-10-27T14:44:38.162Z,21.60
2022-10-27T14:45:42.082Z,21.60
2022-10-27T14:46:46.264Z,21.70
2022-10-27T14:48:04.037Z,21.60
2022-10-27T14:49:10.501Z,21.60